sensor_id;sensor_type;location;lat;lon;timestamp;pressure;altitude;pressure_sealevel;temperature;humidity
12785;BME280;6456;42.680;23.260;2023-05-15T00:02:26;94655.75;;;12.50;100.00
12785;BME280;6456;42.680;23.260;2023-05-15T00:04:53;94602.81;;;12.15;100.00
12785;BME280;6456;42.680;23.260;2023-05-15T00:07:20;94636.69;;;12.48;100.00
12785;BME280;6456;42.680;23.260;2023-05-15T00:09:48;94641.34;;;12.35;100.00
12785;BME280;6456;42.680;23.260;2023-05-15T00:12:15;94652.78;;;12.29;100.00
12785;BME280;6456;42.680;23.260;2023-05-15T00:14:42;94667.66;;;12.23;100.00
12785;BME280;6456;42.680;23.260;2023-05-15T00:17:09;94619.03;;;11.83;100.00
12785;BME280;6456;42.680;23.260;2023-05-15T00:19:37;94669.03;;;12.07;100.00
12785;BME280;6456;42.680;23.260;2023-05-15T00:22:04;94588.03;;;11.42;100.00
12785;BME280;6456;42.680;23.260;2023-05-15T00:24:31;94669.41;;;11.93;100.00
12785;BME280;6456;42.680;23.260;2023-05-15T00:26:59;94623.31;;;11.59;100.00
12785;BME280;6456;42.680;23.260;2023-05-15T00:29:26;94580.69;;;11.26;100.00
12785;BME280;6456;42.680;23.260;2023-05-15T00:31:53;94603.25;;;11.15;100.00
12785;BME280;6456;42.680;23.260;2023-05-15T00:34:20;94657.19;;;11.55;100.00
12785;BME280;6456;42.680;23.260;2023-05-15T00:36:47;94675.13;;;11.72;100.00
12785;BME280;6456;42.680;23.260;2023-05-15T00:39:14;94581.28;;;11.03;100.00
12785;BME280;6456;42.680;23.260;2023-05-15T00:41:42;94678.00;;;11.64;100.00
12785;BME280;6456;42.680;23.260;2023-05-15T00:44:12;94673.13;;;11.67;100.00
12785;BME280;6456;42.680;23.260;2023-05-15T00:46:41;94672.31;;;11.67;100.00
12785;BME280;6456;42.680;23.260;2023-05-15T00:49:11;94653.69;;;11.62;100.00
12785;BME280;6456;42.680;23.260;2023-05-15T00:51:39;94667.81;;;11.74;100.00
12785;BME280;6456;42.680;23.260;2023-05-15T00:54:08;94592.44;;;11.23;100.00
12785;BME280;6456;42.680;23.260;2023-05-15T00:56:36;94662.25;;;11.82;100.00
12785;BME280;6456;42.680;23.260;2023-05-15T00:59:03;94662.03;;;11.83;100.00
12785;BME280;6456;42.680;23.260;2023-05-15T01:01:32;94633.84;;;11.59;100.00
12785;BME280;6456;42.680;23.260;2023-05-15T01:04:00;94647.53;;;11.68;100.00
12785;BME280;6456;42.680;23.260;2023-05-15T01:06:28;94647.19;;;11.64;100.00
12785;BME280;6456;42.680;23.260;2023-05-15T01:08:56;94677.69;;;11.78;100.00
12785;BME280;6456;42.680;23.260;2023-05-15T01:11:27;94610.19;;;11.34;100.00
12785;BME280;6456;42.680;23.260;2023-05-15T01:14:02;94656.69;;;11.72;100.00
12785;BME280;6456;42.680;23.260;2023-05-15T01:16:29;94636.19;;;11.49;100.00
12785;BME280;6456;42.680;23.260;2023-05-15T01:18:58;94653.66;;;11.68;100.00
12785;BME280;6456;42.680;23.260;2023-05-15T01:21:46;94630.03;;;11.55;100.00
12785;BME280;6456;42.680;23.260;2023-05-15T01:24:33;94647.72;;;11.73;100.00
12785;BME280;6456;42.680;23.260;2023-05-15T01:27:18;94632.38;;;11.70;100.00
12785;BME280;6456;42.680;23.260;2023-05-15T01:29:55;94559.09;;;11.17;100.00
12785;BME280;6456;42.680;23.260;2023-05-15T01:32:30;94638.22;;;11.72;100.00
12785;BME280;6456;42.680;23.260;2023-05-15T01:35:08;94623.09;;;11.60;100.00
12785;BME280;6456;42.680;23.260;2023-05-15T01:37:40;94587.22;;;11.41;100.00
12785;BME280;6456;42.680;23.260;2023-05-15T01:40:09;94638.81;;;11.74;100.00
12785;BME280;6456;42.680;23.260;2023-05-15T01:42:41;94576.53;;;11.36;100.00
12785;BME280;6456;42.680;23.260;2023-05-15T01:45:10;94621.31;;;11.79;100.00
12785;BME280;6456;42.680;23.260;2023-05-15T01:47:39;94572.66;;;11.39;100.00
12785;BME280;6456;42.680;23.260;2023-05-15T01:50:09;94632.44;;;11.81;100.00
12785;BME280;6456;42.680;23.260;2023-05-15T01:52:40;94628.78;;;11.82;100.00
12785;BME280;6456;42.680;23.260;2023-05-15T01:55:08;94631.19;;;11.84;100.00
12785;BME280;6456;42.680;23.260;2023-05-15T01:57:37;94633.25;;;11.82;100.00
12785;BME280;6456;42.680;23.260;2023-05-15T02:00:07;94602.44;;;11.57;100.00
12785;BME280;6456;42.680;23.260;2023-05-15T02:02:39;94639.69;;;11.86;100.00
12785;BME280;6456;42.680;23.260;2023-05-15T02:05:07;94648.63;;;11.85;100.00
12785;BME280;6456;42.680;23.260;2023-05-15T02:07:36;94636.22;;;11.85;100.00
12785;BME280;6456;42.680;23.260;2023-05-15T02:10:04;94633.69;;;11.79;100.00
12785;BME280;6456;42.680;23.260;2023-05-15T02:12:32;94610.34;;;11.57;100.00
12785;BME280;6456;42.680;23.260;2023-05-15T02:15:02;94647.88;;;11.78;100.00
12785;BME280;6456;42.680;23.260;2023-05-15T02:17:29;94551.94;;;11.24;100.00
12785;BME280;6456;42.680;23.260;2023-05-15T02:19:56;94628.25;;;11.74;100.00
12785;BME280;6456;42.680;23.260;2023-05-15T02:22:23;94597.47;;;11.49;100.00
12785;BME280;6456;42.680;23.260;2023-05-15T02:24:50;94615.09;;;11.74;100.00
12785;BME280;6456;42.680;23.260;2023-05-15T02:27:21;94608.66;;;11.70;100.00
12785;BME280;6456;42.680;23.260;2023-05-15T02:30:11;94616.63;;;11.81;100.00
12785;BME280;6456;42.680;23.260;2023-05-15T02:32:43;94601.38;;;11.83;100.00
12785;BME280;6456;42.680;23.260;2023-05-15T02:35:18;94570.75;;;11.64;100.00
12785;BME280;6456;42.680;23.260;2023-05-15T02:37:49;94588.78;;;11.67;100.00
12785;BME280;6456;42.680;23.260;2023-05-15T02:40:18;94610.25;;;11.89;100.00
12785;BME280;6456;42.680;23.260;2023-05-15T02:42:46;94622.19;;;11.91;100.00
12785;BME280;6456;42.680;23.260;2023-05-15T02:45:15;94596.53;;;11.80;100.00
12785;BME280;6456;42.680;23.260;2023-05-15T02:47:42;94588.63;;;11.80;100.00
12785;BME280;6456;42.680;23.260;2023-05-15T02:50:10;94592.59;;;11.89;100.00
12785;BME280;6456;42.680;23.260;2023-05-15T02:52:37;94551.59;;;11.57;100.00
12785;BME280;6456;42.680;23.260;2023-05-15T02:55:07;94571.06;;;11.74;100.00
12785;BME280;6456;42.680;23.260;2023-05-15T02:57:34;94592.31;;;11.79;100.00
12785;BME280;6456;42.680;23.260;2023-05-15T03:00:01;94578.94;;;11.56;100.00
12785;BME280;6456;42.680;23.260;2023-05-15T03:02:32;94481.63;;;11.07;100.00
12785;BME280;6456;42.680;23.260;2023-05-15T03:04:59;94549.28;;;11.42;100.00
12785;BME280;6456;42.680;23.260;2023-05-15T03:07:25;94608.84;;;11.86;100.00
12785;BME280;6456;42.680;23.260;2023-05-15T03:09:52;94555.31;;;11.49;100.00
12785;BME280;6456;42.680;23.260;2023-05-15T03:12:19;94548.44;;;11.48;100.00
12785;BME280;6456;42.680;23.260;2023-05-15T03:14:46;94622.56;;;11.95;100.00
12785;BME280;6456;42.680;23.260;2023-05-15T03:17:13;94617.16;;;11.90;100.00
12785;BME280;6456;42.680;23.260;2023-05-15T03:19:41;94588.16;;;11.65;100.00
12785;BME280;6456;42.680;23.260;2023-05-15T03:22:08;94534.81;;;11.33;100.00
12785;BME280;6456;42.680;23.260;2023-05-15T03:24:34;94609.97;;;11.79;100.00
12785;BME280;6456;42.680;23.260;2023-05-15T03:27:01;94612.50;;;11.85;100.00
12785;BME280;6456;42.680;23.260;2023-05-15T03:29:29;94595.97;;;11.78;100.00
12785;BME280;6456;42.680;23.260;2023-05-15T03:31:55;94611.63;;;11.91;100.00
12785;BME280;6456;42.680;23.260;2023-05-15T03:34:22;94598.97;;;11.82;100.00
12785;BME280;6456;42.680;23.260;2023-05-15T03:36:51;94543.72;;;11.32;100.00
12785;BME280;6456;42.680;23.260;2023-05-15T03:39:17;94586.00;;;11.62;100.00
12785;BME280;6456;42.680;23.260;2023-05-15T03:41:44;94515.91;;;11.18;100.00
12785;BME280;6456;42.680;23.260;2023-05-15T03:44:11;94582.50;;;11.68;100.00
12785;BME280;6456;42.680;23.260;2023-05-15T03:46:38;94579.66;;;11.70;100.00
12785;BME280;6456;42.680;23.260;2023-05-15T03:49:05;94603.22;;;11.83;100.00
12785;BME280;6456;42.680;23.260;2023-05-15T03:51:31;94603.22;;;11.83;100.00
12785;BME280;6456;42.680;23.260;2023-05-15T03:54:00;94616.69;;;11.93;100.00
12785;BME280;6456;42.680;23.260;2023-05-15T03:56:29;94545.28;;;11.58;100.00
12785;BME280;6456;42.680;23.260;2023-05-15T03:58:57;94526.63;;;11.41;100.00
12785;BME280;6456;42.680;23.260;2023-05-15T04:01:24;94543.59;;;11.64;100.00
12785;BME280;6456;42.680;23.260;2023-05-15T04:03:51;94613.22;;;12.10;100.00
12785;BME280;6456;42.680;23.260;2023-05-15T04:06:18;94539.47;;;11.68;100.00
12785;BME280;6456;42.680;23.260;2023-05-15T04:08:45;94534.84;;;11.70;100.00
12785;BME280;6456;42.680;23.260;2023-05-15T04:11:13;94534.22;;;11.68;100.00
12785;BME280;6456;42.680;23.260;2023-05-15T04:13:40;94624.00;;;12.27;100.00
12785;BME280;6456;42.680;23.260;2023-05-15T04:16:07;94618.47;;;12.29;100.00
12785;BME280;6456;42.680;23.260;2023-05-15T04:18:34;94591.16;;;12.05;100.00
12785;BME280;6456;42.680;23.260;2023-05-15T04:21:03;94619.16;;;12.24;100.00
12785;BME280;6456;42.680;23.260;2023-05-15T04:23:30;94633.63;;;12.33;100.00
12785;BME280;6456;42.680;23.260;2023-05-15T04:25:56;94579.91;;;11.98;100.00
12785;BME280;6456;42.680;23.260;2023-05-15T04:28:27;94618.75;;;12.39;100.00
12785;BME280;6456;42.680;23.260;2023-05-15T04:30:54;94615.53;;;12.37;100.00
12785;BME280;6456;42.680;23.260;2023-05-15T04:33:23;94548.19;;;12.04;100.00
12785;BME280;6456;42.680;23.260;2023-05-15T04:35:49;94599.16;;;12.46;100.00
12785;BME280;6456;42.680;23.260;2023-05-15T04:38:16;94576.63;;;12.32;100.00
12785;BME280;6456;42.680;23.260;2023-05-15T04:40:44;94589.31;;;12.53;100.00
12785;BME280;6456;42.680;23.260;2023-05-15T04:43:11;94537.38;;;12.24;100.00
12785;BME280;6456;42.680;23.260;2023-05-15T04:45:39;94596.22;;;12.54;100.00
12785;BME280;6456;42.680;23.260;2023-05-15T04:48:06;94611.63;;;12.57;100.00
12785;BME280;6456;42.680;23.260;2023-05-15T04:50:35;94603.09;;;12.55;100.00
12785;BME280;6456;42.680;23.260;2023-05-15T04:53:04;94602.06;;;12.56;100.00
12785;BME280;6456;42.680;23.260;2023-05-15T04:55:30;94607.47;;;12.61;100.00
12785;BME280;6456;42.680;23.260;2023-05-15T04:57:57;94569.44;;;12.39;100.00
12785;BME280;6456;42.680;23.260;2023-05-15T05:00:24;94601.63;;;12.59;100.00
12785;BME280;6456;42.680;23.260;2023-05-15T05:02:52;94573.09;;;12.38;100.00
12785;BME280;6456;42.680;23.260;2023-05-15T05:05:19;94567.50;;;12.46;100.00
12785;BME280;6456;42.680;23.260;2023-05-15T05:07:46;94582.72;;;12.62;100.00
12785;BME280;6456;42.680;23.260;2023-05-15T05:10:15;94535.00;;;12.34;100.00
12785;BME280;6456;42.680;23.260;2023-05-15T05:12:42;94529.03;;;12.27;100.00
12785;BME280;6456;42.680;23.260;2023-05-15T05:15:09;94594.22;;;12.79;100.00
12785;BME280;6456;42.680;23.260;2023-05-15T05:17:36;94552.25;;;12.48;100.00
12785;BME280;6456;42.680;23.260;2023-05-15T05:20:06;94577.94;;;12.82;100.00
12785;BME280;6456;42.680;23.260;2023-05-15T05:22:35;94531.44;;;12.40;100.00
12785;BME280;6456;42.680;23.260;2023-05-15T05:25:02;94599.84;;;12.83;100.00
12785;BME280;6456;42.680;23.260;2023-05-15T05:27:28;94592.91;;;12.70;100.00
12785;BME280;6456;42.680;23.260;2023-05-15T05:29:55;94599.84;;;12.83;100.00
12785;BME280;6456;42.680;23.260;2023-05-15T05:32:22;94572.97;;;12.74;100.00
12785;BME280;6456;42.680;23.260;2023-05-15T05:34:49;94552.63;;;12.63;100.00
12785;BME280;6456;42.680;23.260;2023-05-15T05:37:17;94540.91;;;12.59;100.00
12785;BME280;6456;42.680;23.260;2023-05-15T05:39:44;94547.16;;;12.76;100.00
12785;BME280;6456;42.680;23.260;2023-05-15T05:42:11;94544.50;;;12.76;100.00
12785;BME280;6456;42.680;23.260;2023-05-15T05:44:38;94586.25;;;13.21;100.00
12785;BME280;6456;42.680;23.260;2023-05-15T05:47:05;94579.81;;;13.28;100.00
12785;BME280;6456;42.680;23.260;2023-05-15T05:49:32;94593.72;;;13.35;100.00
12785;BME280;6456;42.680;23.260;2023-05-15T05:52:05;94527.19;;;13.04;100.00
12785;BME280;6456;42.680;23.260;2023-05-15T05:54:33;94570.28;;;13.50;100.00
12785;BME280;6456;42.680;23.260;2023-05-15T05:57:03;94531.09;;;13.36;100.00
12785;BME280;6456;42.680;23.260;2023-05-15T05:59:31;94598.97;;;13.93;100.00
12785;BME280;6456;42.680;23.260;2023-05-15T06:01:58;94598.94;;;14.05;100.00
12785;BME280;6456;42.680;23.260;2023-05-15T06:04:25;94606.75;;;14.11;100.00
12785;BME280;6456;42.680;23.260;2023-05-15T06:06:52;94594.44;;;14.17;100.00
12785;BME280;6456;42.680;23.260;2023-05-15T06:09:19;94604.53;;;14.32;100.00
12785;BME280;6456;42.680;23.260;2023-05-15T06:11:47;94502.25;;;13.86;100.00
12785;BME280;6456;42.680;23.260;2023-05-15T06:14:14;94561.25;;;14.38;100.00
12785;BME280;6456;42.680;23.260;2023-05-15T06:16:40;94555.97;;;14.38;100.00
12785;BME280;6456;42.680;23.260;2023-05-15T06:19:08;94576.81;;;14.51;100.00
12785;BME280;6456;42.680;23.260;2023-05-15T06:21:35;94552.34;;;14.44;100.00
12785;BME280;6456;42.680;23.260;2023-05-15T06:24:02;94595.81;;;14.76;100.00
12785;BME280;6456;42.680;23.260;2023-05-15T06:26:29;94594.78;;;14.94;100.00
12785;BME280;6456;42.680;23.260;2023-05-15T06:28:57;94595.38;;;15.12;100.00
12785;BME280;6456;42.680;23.260;2023-05-15T06:31:25;94557.22;;;14.80;100.00
12785;BME280;6456;42.680;23.260;2023-05-15T06:33:52;94596.66;;;15.26;100.00
12785;BME280;6456;42.680;23.260;2023-05-15T06:36:18;94539.16;;;15.10;100.00
12785;BME280;6456;42.680;23.260;2023-05-15T06:38:45;94538.59;;;15.08;100.00
12785;BME280;6456;42.680;23.260;2023-05-15T06:41:12;94615.09;;;15.50;100.00
12785;BME280;6456;42.680;23.260;2023-05-15T06:43:39;94610.75;;;15.60;100.00
12785;BME280;6456;42.680;23.260;2023-05-15T06:46:07;94600.84;;;15.56;100.00
12785;BME280;6456;42.680;23.260;2023-05-15T06:48:34;94615.63;;;15.52;100.00
12785;BME280;6456;42.680;23.260;2023-05-15T06:51:02;94604.06;;;15.58;100.00
12785;BME280;6456;42.680;23.260;2023-05-15T06:53:29;94525.19;;;15.15;100.00
12785;BME280;6456;42.680;23.260;2023-05-15T06:55:55;94554.56;;;15.47;100.00
12785;BME280;6456;42.680;23.260;2023-05-15T06:58:23;94619.28;;;15.84;100.00
12785;BME280;6456;42.680;23.260;2023-05-15T07:00:50;94615.59;;;15.85;100.00
12785;BME280;6456;42.680;23.260;2023-05-15T07:03:18;94580.34;;;15.68;100.00
12785;BME280;6456;42.680;23.260;2023-05-15T07:05:45;94603.63;;;16.04;100.00
12785;BME280;6456;42.680;23.260;2023-05-15T07:08:12;94532.16;;;15.76;100.00
12785;BME280;6456;42.680;23.260;2023-05-15T07:10:39;94608.63;;;16.44;100.00
12785;BME280;6456;42.680;23.260;2023-05-15T07:13:05;94598.16;;;16.54;100.00
12785;BME280;6456;42.680;23.260;2023-05-15T07:15:34;94572.75;;;16.41;100.00
12785;BME280;6456;42.680;23.260;2023-05-15T07:18:01;94567.69;;;16.40;100.00
12785;BME280;6456;42.680;23.260;2023-05-15T07:20:29;94601.44;;;16.66;100.00
12785;BME280;6456;42.680;23.260;2023-05-15T07:22:56;94595.94;;;16.51;100.00
12785;BME280;6456;42.680;23.260;2023-05-15T07:25:23;94624.22;;;16.57;100.00
12785;BME280;6456;42.680;23.260;2023-05-15T07:27:50;94625.69;;;16.48;100.00
12785;BME280;6456;42.680;23.260;2023-05-15T07:30:16;94602.22;;;16.40;100.00
12785;BME280;6456;42.680;23.260;2023-05-15T07:32:43;94606.16;;;16.59;100.00
12785;BME280;6456;42.680;23.260;2023-05-15T07:35:10;94607.09;;;16.70;100.00
12785;BME280;6456;42.680;23.260;2023-05-15T07:37:41;94587.94;;;16.67;100.00
12785;BME280;6456;42.680;23.260;2023-05-15T07:40:08;94611.69;;;16.79;100.00
12785;BME280;6456;42.680;23.260;2023-05-15T07:42:35;94606.59;;;16.73;100.00
12785;BME280;6456;42.680;23.260;2023-05-15T07:45:05;94530.34;;;16.25;100.00
12785;BME280;6456;42.680;23.260;2023-05-15T07:47:32;94578.50;;;16.55;100.00
12785;BME280;6456;42.680;23.260;2023-05-15T07:49:59;94591.25;;;16.53;100.00
12785;BME280;6456;42.680;23.260;2023-05-15T07:52:26;94615.16;;;16.53;100.00
12785;BME280;6456;42.680;23.260;2023-05-15T07:54:55;94592.22;;;16.25;100.00
12785;BME280;6456;42.680;23.260;2023-05-15T07:57:24;94603.88;;;16.24;100.00
12785;BME280;6456;42.680;23.260;2023-05-15T07:59:51;94621.09;;;16.22;100.00
12785;BME280;6456;42.680;23.260;2023-05-15T08:02:18;94585.22;;;15.76;100.00
12785;BME280;6456;42.680;23.260;2023-05-15T08:04:44;94630.00;;;16.11;100.00
12785;BME280;6456;42.680;23.260;2023-05-15T08:07:12;94628.31;;;16.26;100.00
12785;BME280;6456;42.680;23.260;2023-05-15T08:09:39;94625.84;;;16.41;100.00
12785;BME280;6456;42.680;23.260;2023-05-15T08:12:15;94622.16;;;16.42;100.00
12785;BME280;6456;42.680;23.260;2023-05-15T08:14:46;94626.66;;;16.42;100.00
12785;BME280;6456;42.680;23.260;2023-05-15T08:17:13;94569.56;;;15.96;100.00
12785;BME280;6456;42.680;23.260;2023-05-15T08:19:40;94603.59;;;16.21;100.00
12785;BME280;6456;42.680;23.260;2023-05-15T08:22:07;94545.06;;;15.89;100.00
12785;BME280;6456;42.680;23.260;2023-05-15T08:24:33;94618.75;;;16.47;100.00
12785;BME280;6456;42.680;23.260;2023-05-15T08:27:00;94627.13;;;16.55;100.00
12785;BME280;6456;42.680;23.260;2023-05-15T08:29:28;94620.47;;;16.53;100.00
12785;BME280;6456;42.680;23.260;2023-05-15T08:31:55;94618.16;;;16.61;100.00
12785;BME280;6456;42.680;23.260;2023-05-15T08:34:22;94616.63;;;16.65;100.00
12785;BME280;6456;42.680;23.260;2023-05-15T08:36:49;94624.63;;;16.71;100.00
12785;BME280;6456;42.680;23.260;2023-05-15T08:39:16;94622.84;;;16.54;100.00
12785;BME280;6456;42.680;23.260;2023-05-15T08:41:47;94567.91;;;16.12;100.00
12785;BME280;6456;42.680;23.260;2023-05-15T08:44:16;94615.72;;;16.38;100.00
12785;BME280;6456;42.680;23.260;2023-05-15T08:46:46;94612.69;;;16.51;100.00
12785;BME280;6456;42.680;23.260;2023-05-15T08:49:18;94610.19;;;16.61;100.00
12785;BME280;6456;42.680;23.260;2023-05-15T08:51:46;94606.97;;;16.59;100.00
12785;BME280;6456;42.680;23.260;2023-05-15T08:54:14;94603.31;;;16.44;100.00
12785;BME280;6456;42.680;23.260;2023-05-15T08:56:41;94590.88;;;16.23;100.00
12785;BME280;6456;42.680;23.260;2023-05-15T08:59:08;94544.03;;;15.90;100.00
12785;BME280;6456;42.680;23.260;2023-05-15T09:01:35;94592.84;;;16.32;100.00
12785;BME280;6456;42.680;23.260;2023-05-15T09:04:04;94595.00;;;16.35;100.00
12785;BME280;6456;42.680;23.260;2023-05-15T09:06:32;94582.38;;;16.47;100.00
12785;BME280;6456;42.680;23.260;2023-05-15T09:09:03;94532.31;;;16.34;100.00
12785;BME280;6456;42.680;23.260;2023-05-15T09:11:30;94573.09;;;16.72;100.00
12785;BME280;6456;42.680;23.260;2023-05-15T09:13:58;94593.44;;;16.88;100.00
12785;BME280;6456;42.680;23.260;2023-05-15T09:16:25;94593.53;;;16.98;100.00
12785;BME280;6456;42.680;23.260;2023-05-15T09:18:53;94579.31;;;17.14;100.00
12785;BME280;6456;42.680;23.260;2023-05-15T09:21:25;94569.31;;;17.26;100.00
12785;BME280;6456;42.680;23.260;2023-05-15T09:23:53;94559.75;;;17.25;100.00
12785;BME280;6456;42.680;23.260;2023-05-15T09:26:20;94584.31;;;17.42;100.00
12785;BME280;6456;42.680;23.260;2023-05-15T09:28:47;94498.28;;;16.85;100.00
12785;BME280;6456;42.680;23.260;2023-05-15T09:31:18;94569.72;;;17.45;100.00
12785;BME280;6456;42.680;23.260;2023-05-15T09:33:58;94575.22;;;17.33;100.00
12785;BME280;6456;42.680;23.260;2023-05-15T09:36:27;94554.47;;;17.30;100.00
12785;BME280;6456;42.680;23.260;2023-05-15T09:38:57;94555.47;;;17.24;100.00
12785;BME280;6456;42.680;23.260;2023-05-15T09:41:25;94532.75;;;17.11;100.00
12785;BME280;6456;42.680;23.260;2023-05-15T09:43:52;94511.19;;;17.03;100.00
12785;BME280;6456;42.680;23.260;2023-05-15T09:46:21;94492.75;;;16.91;100.00
12785;BME280;6456;42.680;23.260;2023-05-15T09:48:48;94539.81;;;16.91;100.00
12785;BME280;6456;42.680;23.260;2023-05-15T09:51:15;94522.88;;;16.70;100.00
12785;BME280;6456;42.680;23.260;2023-05-15T09:53:47;94550.94;;;16.88;100.00
12785;BME280;6456;42.680;23.260;2023-05-15T09:56:14;94553.09;;;16.91;100.00
12785;BME280;6456;42.680;23.260;2023-05-15T09:58:51;94546.81;;;17.07;100.00
12785;BME280;6456;42.680;23.260;2023-05-15T10:01:19;94547.81;;;17.33;100.00
12785;BME280;6456;42.680;23.260;2023-05-15T10:03:56;94520.44;;;17.32;100.00
12785;BME280;6456;42.680;23.260;2023-05-15T10:06:23;94547.75;;;17.59;100.00
12785;BME280;6456;42.680;23.260;2023-05-15T10:08:51;94550.50;;;17.74;100.00
12785;BME280;6456;42.680;23.260;2023-05-15T10:11:19;94548.41;;;17.81;100.00
12785;BME280;6456;42.680;23.260;2023-05-15T10:13:47;94544.19;;;17.85;100.00
12785;BME280;6456;42.680;23.260;2023-05-15T10:16:14;94548.25;;;17.98;100.00
12785;BME280;6456;42.680;23.260;2023-05-15T10:18:43;94537.50;;;17.78;100.00
12785;BME280;6456;42.680;23.260;2023-05-15T10:21:11;94562.00;;;17.85;100.00
12785;BME280;6456;42.680;23.260;2023-05-15T10:23:40;94572.97;;;17.88;100.00
12785;BME280;6456;42.680;23.260;2023-05-15T10:26:15;94555.69;;;17.96;100.00
12785;BME280;6456;42.680;23.260;2023-05-15T10:28:45;94569.28;;;18.00;100.00
12785;BME280;6456;42.680;23.260;2023-05-15T10:31:13;94576.78;;;18.08;100.00
12785;BME280;6456;42.680;23.260;2023-05-15T10:33:40;94586.91;;;18.11;100.00
12785;BME280;6456;42.680;23.260;2023-05-15T10:36:07;94584.78;;;18.13;100.00
12785;BME280;6456;42.680;23.260;2023-05-15T10:38:35;94587.44;;;18.13;100.00
12785;BME280;6456;42.680;23.260;2023-05-15T10:41:03;94546.59;;;17.92;100.00
12785;BME280;6456;42.680;23.260;2023-05-15T10:43:32;94550.31;;;17.86;100.00
12785;BME280;6456;42.680;23.260;2023-05-15T10:46:02;94581.59;;;18.16;100.00
12785;BME280;6456;42.680;23.260;2023-05-15T10:48:30;94573.06;;;18.19;100.00
12785;BME280;6456;42.680;23.260;2023-05-15T10:50:59;94579.75;;;18.26;100.00
12785;BME280;6456;42.680;23.260;2023-05-15T10:53:26;94561.38;;;18.20;100.00
12785;BME280;6456;42.680;23.260;2023-05-15T10:55:53;94537.31;;;18.00;100.00
12785;BME280;6456;42.680;23.260;2023-05-15T10:58:21;94505.31;;;17.84;100.00
12785;BME280;6456;42.680;23.260;2023-05-15T11:00:50;94537.09;;;18.16;100.00
12785;BME280;6456;42.680;23.260;2023-05-15T11:03:34;94516.03;;;18.00;100.00
12785;BME280;6456;42.680;23.260;2023-05-15T11:06:08;94553.38;;;18.20;100.00
12785;BME280;6456;42.680;23.260;2023-05-15T11:08:37;94557.06;;;18.14;100.00
12785;BME280;6456;42.680;23.260;2023-05-15T11:11:04;94565.59;;;18.06;100.00
12785;BME280;6456;42.680;23.260;2023-05-15T11:16:59;94553.84;;;18.07;100.00
12785;BME280;6456;42.680;23.260;2023-05-15T11:19:36;94509.72;;;17.64;100.00
12785;BME280;6456;42.680;23.260;2023-05-15T11:22:19;94562.38;;;18.09;100.00
12785;BME280;6456;42.680;23.260;2023-05-15T11:24:51;94539.22;;;18.09;100.00
12785;BME280;6456;42.680;23.260;2023-05-15T11:27:20;94552.88;;;18.23;100.00
12785;BME280;6456;42.680;23.260;2023-05-15T11:30:10;94512.50;;;17.84;100.00
12785;BME280;6456;42.680;23.260;2023-05-15T11:32:57;94550.00;;;18.44;100.00
12785;BME280;6456;42.680;23.260;2023-05-15T11:35:27;94549.25;;;18.54;100.00
12785;BME280;6456;42.680;23.260;2023-05-15T11:37:56;94509.19;;;18.34;100.00
12785;BME280;6456;42.680;23.260;2023-05-15T11:40:25;94523.94;;;18.62;100.00
12785;BME280;6456;42.680;23.260;2023-05-15T11:43:03;94526.63;;;18.77;100.00
12785;BME280;6456;42.680;23.260;2023-05-15T11:45:31;94541.06;;;18.96;100.00
12785;BME280;6456;42.680;23.260;2023-05-15T11:48:05;94527.72;;;19.21;100.00
12785;BME280;6456;42.680;23.260;2023-05-15T11:50:33;94519.47;;;19.38;98.02
12785;BME280;6456;42.680;23.260;2023-05-15T11:53:04;94530.63;;;19.60;99.47
12785;BME280;6456;42.680;23.260;2023-05-15T11:55:34;94499.72;;;19.29;95.04
12785;BME280;6456;42.680;23.260;2023-05-15T11:58:01;94518.91;;;19.36;97.33
12785;BME280;6456;42.680;23.260;2023-05-15T12:00:28;94520.50;;;19.47;96.98
12785;BME280;6456;42.680;23.260;2023-05-15T12:02:55;94494.91;;;19.41;95.90
12785;BME280;6456;42.680;23.260;2023-05-15T12:05:24;94525.25;;;19.80;94.98
12785;BME280;6456;42.680;23.260;2023-05-15T12:07:51;94516.91;;;19.92;94.76
12785;BME280;6456;42.680;23.260;2023-05-15T12:10:18;94519.28;;;20.08;94.89
12785;BME280;6456;42.680;23.260;2023-05-15T12:12:45;94469.72;;;19.77;92.53
12785;BME280;6456;42.680;23.260;2023-05-15T12:15:15;94474.78;;;19.83;92.51
12785;BME280;6456;42.680;23.260;2023-05-15T12:17:44;94522.47;;;20.10;93.73
12785;BME280;6456;42.680;23.260;2023-05-15T12:20:16;94503.78;;;20.10;94.18
12785;BME280;6456;42.680;23.260;2023-05-15T12:22:53;94502.69;;;20.26;94.63
12785;BME280;6456;42.680;23.260;2023-05-15T12:25:20;94476.75;;;20.17;93.83
12785;BME280;6456;42.680;23.260;2023-05-15T12:27:47;94474.69;;;20.04;92.69
12785;BME280;6456;42.680;23.260;2023-05-15T12:30:14;94463.72;;;20.05;95.04
12785;BME280;6456;42.680;23.260;2023-05-15T12:32:41;94396.34;;;19.69;95.43
12785;BME280;6456;42.680;23.260;2023-05-15T12:35:09;94439.78;;;19.90;96.11
12785;BME280;6456;42.680;23.260;2023-05-15T12:37:36;94448.31;;;19.87;93.04
12785;BME280;6456;42.680;23.260;2023-05-15T12:40:05;94442.38;;;20.05;91.85
12785;BME280;6456;42.680;23.260;2023-05-15T12:42:38;94437.97;;;20.29;92.40
12785;BME280;6456;42.680;23.260;2023-05-15T12:45:11;94432.16;;;20.17;91.62
12785;BME280;6456;42.680;23.260;2023-05-15T12:47:39;94421.25;;;20.09;93.12
12785;BME280;6456;42.680;23.260;2023-05-15T12:50:12;94396.94;;;20.10;92.33
12785;BME280;6456;42.680;23.260;2023-05-15T12:52:39;94434.03;;;20.61;93.03
12785;BME280;6456;42.680;23.260;2023-05-15T12:55:14;94439.06;;;20.67;90.34
12785;BME280;6456;42.680;23.260;2023-05-15T12:57:42;94443.59;;;20.67;86.90
12785;BME280;6456;42.680;23.260;2023-05-15T13:00:10;94361.63;;;20.23;86.19
12785;BME280;6456;42.680;23.260;2023-05-15T13:02:38;94444.25;;;20.87;88.21